createdAt,value
2019-03-30T00:02:28.198Z,6.41
2019-03-30T00:06:27.889Z,6.34
2019-03-30T00:13:45.357Z,6.17
2019-03-30T00:20:55.098Z,6.07
2019-03-30T00:31:37.183Z,5.90
2019-03-30T00:36:08.727Z,5.81
2019-03-30T00:39:08.835Z,5.83
2019-03-30T00:43:27.115Z,5.79
2019-03-30T00:55:29.605Z,5.69
2019-03-30T00:59:25.738Z,5.74
2019-03-30T01:03:06.355Z,5.69
2019-03-30T01:22:33.801Z,5.49
2019-03-30T01:26:34.301Z,5.51
2019-03-30T01:30:00.591Z,5.56
2019-03-30T01:36:40.007Z,5.63
2019-03-30T01:39:47.305Z,5.55
2019-03-30T01:47:34.291Z,5.59
2019-03-30T01:51:04.240Z,5.50
2019-03-30T01:57:26.443Z,5.47
2019-03-30T02:00:44.280Z,5.57
2019-03-30T02:07:33.065Z,5.54
2019-03-30T02:11:06.617Z,5.50
2019-03-30T02:14:43.451Z,5.48
2019-03-30T02:29:55.273Z,5.41
2019-03-30T02:37:17.625Z,5.29
2019-03-30T02:40:26.221Z,5.28
2019-03-30T02:43:51.646Z,5.21
2019-03-30T02:50:47.748Z,5.11
2019-03-30T02:57:55.025Z,5.10
2019-03-30T03:01:06.604Z,5.07
2019-03-30T03:04:21.251Z,5.05
2019-03-30T03:07:26.591Z,5.01
2019-03-30T03:14:30.622Z,4.98
2019-03-30T03:18:29.720Z,4.97
2019-03-30T03:26:49.937Z,5.02
2019-03-30T03:29:57.253Z,5.07
2019-03-30T03:37:21.938Z,5.17
2019-03-30T03:40:36.970Z,5.20
2019-03-30T03:44:13.140Z,5.07
2019-03-30T03:47:56.870Z,5.04
2019-03-30T04:02:44.987Z,4.86
2019-03-30T04:05:50.224Z,4.82
2019-03-30T04:08:57.243Z,4.77
2019-03-30T04:12:03.481Z,4.81
2019-03-30T04:15:09.035Z,4.81
2019-03-30T04:18:14.075Z,4.82
2019-03-30T04:21:19.140Z,4.74
2019-03-30T04:24:23.950Z,4.73
2019-03-30T04:27:28.784Z,4.68
2019-03-30T04:30:33.729Z,4.65
2019-03-30T04:33:38.713Z,4.63
2019-03-30T04:36:43.516Z,4.57
2019-03-30T04:39:48.389Z,4.55
2019-03-30T04:42:53.216Z,4.53
2019-03-30T04:45:58.049Z,4.57
2019-03-30T04:49:04.890Z,4.60
2019-03-30T04:52:09.712Z,4.63
2019-03-30T04:55:14.513Z,4.67
2019-03-30T04:58:19.336Z,4.77
2019-03-30T05:01:24.185Z,4.92
2019-03-30T05:04:30.450Z,5.02
2019-03-30T05:07:35.290Z,4.92
2019-03-30T05:10:40.361Z,4.85
2019-03-30T05:13:45.181Z,4.87
2019-03-30T05:16:53.036Z,4.82
2019-03-30T05:19:57.910Z,4.82
2019-03-30T05:23:02.704Z,4.81
2019-03-30T05:26:07.522Z,4.79
2019-03-30T05:29:12.369Z,4.78
2019-03-30T05:32:17.209Z,4.77
2019-03-30T05:35:22.033Z,4.76
2019-03-30T05:38:28.690Z,4.72
2019-03-30T05:41:33.510Z,4.71
2019-03-30T05:44:38.306Z,4.70
2019-03-30T05:47:43.147Z,4.72
2019-03-30T05:50:47.976Z,4.73
2019-03-30T05:53:52.780Z,4.78
2019-03-30T05:56:57.616Z,4.84
2019-03-30T06:00:02.563Z,4.86
2019-03-30T06:03:07.398Z,4.90
2019-03-30T06:06:12.202Z,4.88
2019-03-30T06:09:17.056Z,4.93
2019-03-30T06:12:21.876Z,4.99
2019-03-30T06:15:26.692Z,5.07
2019-03-30T06:18:31.508Z,5.17
2019-03-30T06:21:36.338Z,5.27
2019-03-30T06:24:41.154Z,5.36
2019-03-30T06:27:46.000Z,5.43
2019-03-30T06:30:50.824Z,5.50
2019-03-30T06:33:55.758Z,5.58
2019-03-30T06:37:00.552Z,5.64
2019-03-30T06:40:05.501Z,5.72
2019-03-30T06:43:10.339Z,5.79
2019-03-30T06:46:15.200Z,5.88
2019-03-30T06:49:19.992Z,6.01
2019-03-30T06:52:24.847Z,6.18
2019-03-30T06:55:32.027Z,6.41
2019-03-30T06:58:36.833Z,6.56
2019-03-30T07:01:42.171Z,6.75
2019-03-30T07:04:47.416Z,6.92
2019-03-30T07:07:52.552Z,7.00
2019-03-30T07:10:59.280Z,7.13
2019-03-30T07:14:05.510Z,7.31
2019-03-30T07:17:12.707Z,7.39
2019-03-30T07:20:30.622Z,7.66
2019-03-30T07:23:35.491Z,7.78
2019-03-30T07:26:40.378Z,8.04
2019-03-30T07:29:45.195Z,8.16
2019-03-30T07:32:50.027Z,8.37
2019-03-30T07:35:54.833Z,8.53
2019-03-30T07:38:59.670Z,8.72
2019-03-30T07:42:04.670Z,8.92
2019-03-30T07:45:09.745Z,9.19
2019-03-30T07:48:14.621Z,9.20
2019-03-30T07:51:19.463Z,9.28
2019-03-30T07:54:26.069Z,9.51
2019-03-30T07:57:30.915Z,9.64
2019-03-30T08:00:35.765Z,9.87
2019-03-30T08:03:40.629Z,9.96
2019-03-30T08:06:45.452Z,9.99
2019-03-30T08:09:50.266Z,10.15
2019-03-30T08:12:55.223Z,10.26
2019-03-30T08:16:01.868Z,10.30
2019-03-30T08:19:09.062Z,10.48
2019-03-30T08:22:13.882Z,10.58
2019-03-30T08:25:18.732Z,10.72
2019-03-30T08:28:23.559Z,10.81
2019-03-30T08:31:28.779Z,10.78
2019-03-30T08:34:33.630Z,10.93
2019-03-30T08:37:39.647Z,11.06
2019-03-30T08:40:44.497Z,11.09
2019-03-30T08:43:49.336Z,11.15
2019-03-30T08:46:54.173Z,11.26
2019-03-30T08:49:59.065Z,11.43
2019-03-30T08:53:03.915Z,11.44
2019-03-30T08:56:08.743Z,11.58
2019-03-30T08:59:13.578Z,11.77
2019-03-30T09:02:18.418Z,11.87
2019-03-30T09:05:23.271Z,12.02
2019-03-30T09:08:28.128Z,12.20
2019-03-30T09:11:33.186Z,12.58
2019-03-30T09:14:38.024Z,12.57
2019-03-30T09:17:44.520Z,12.57
2019-03-30T09:20:50.654Z,12.69
2019-03-30T09:24:08.986Z,12.88
2019-03-30T09:27:04.539Z,13.17
2019-03-30T09:30:11.284Z,13.16
2019-03-30T09:33:16.135Z,13.26
2019-03-30T09:36:20.969Z,13.32
2019-03-30T09:39:25.795Z,13.51
2019-03-30T09:42:30.659Z,13.67
2019-03-30T09:45:35.626Z,13.76
2019-03-30T09:48:40.482Z,13.91
2019-03-30T09:51:45.298Z,13.88
2019-03-30T09:54:53.182Z,13.94
2019-03-30T09:57:58.012Z,14.08
2019-03-30T10:01:02.849Z,14.09
2019-03-30T10:04:07.706Z,14.31
2019-03-30T10:07:12.537Z,14.31
2019-03-30T10:10:17.365Z,14.45
2019-03-30T10:13:22.204Z,14.68
2019-03-30T10:16:29.806Z,14.50
2019-03-30T10:19:34.629Z,14.45
2019-03-30T10:22:42.203Z,14.66
2019-03-30T10:25:45.997Z,14.76
2019-03-30T10:28:50.839Z,14.78
2019-03-30T10:31:55.685Z,14.70
2019-03-30T10:35:00.524Z,14.77
2019-03-30T10:38:05.440Z,14.97
2019-03-30T10:41:10.297Z,15.13
2019-03-30T10:44:15.119Z,15.24
2019-03-30T10:47:19.956Z,15.16
2019-03-30T10:50:24.812Z,15.27
2019-03-30T10:53:29.647Z,15.27
2019-03-30T10:56:34.479Z,15.37
2019-03-30T10:59:39.300Z,15.25
2019-03-30T11:02:44.121Z,15.33
2019-03-30T11:05:49.226Z,15.52
2019-03-30T11:08:54.188Z,15.52
2019-03-30T11:11:59.012Z,15.71
2019-03-30T11:15:03.872Z,15.59
2019-03-30T11:18:08.731Z,15.63
2019-03-30T11:21:13.591Z,15.77
2019-03-30T11:24:20.879Z,15.57
2019-03-30T11:27:25.712Z,15.57
2019-03-30T11:30:30.603Z,15.47
2019-03-30T11:33:35.455Z,15.65
2019-03-30T11:36:40.290Z,15.56
2019-03-30T11:39:45.116Z,15.74
2019-03-30T11:42:49.980Z,15.76
2019-03-30T11:45:57.782Z,15.72
2019-03-30T11:49:02.610Z,15.90
2019-03-30T11:52:07.448Z,16.31
2019-03-30T11:55:21.618Z,16.39
2019-03-30T11:58:19.187Z,16.32
2019-03-30T12:01:25.295Z,16.42
2019-03-30T12:04:30.124Z,16.46
2019-03-30T12:07:36.125Z,16.22
2019-03-30T12:10:40.968Z,16.19
2019-03-30T12:13:45.811Z,16.10
2019-03-30T12:16:50.670Z,15.94
2019-03-30T12:19:55.484Z,15.82
2019-03-30T12:23:00.831Z,15.83
2019-03-30T12:26:05.773Z,15.98
2019-03-30T12:29:10.610Z,15.78
2019-03-30T12:32:15.440Z,15.94
2019-03-30T12:35:20.279Z,16.03
2019-03-30T12:38:25.102Z,16.15
2019-03-30T12:41:29.941Z,16.36
2019-03-30T12:44:36.899Z,16.25
2019-03-30T12:47:41.710Z,16.58
2019-03-30T12:50:46.545Z,16.61
2019-03-30T12:53:51.419Z,16.59
2019-03-30T12:56:56.232Z,16.33
2019-03-30T13:00:01.055Z,16.19
2019-03-30T13:03:06.007Z,16.01
2019-03-30T13:06:10.830Z,16.04
2019-03-30T13:09:15.644Z,16.05
2019-03-30T13:12:20.476Z,16.11
2019-03-30T13:15:28.114Z,16.20
2019-03-30T13:18:32.979Z,16.27
2019-03-30T13:21:51.810Z,16.16
2019-03-30T13:24:44.420Z,16.12
2019-03-30T13:27:49.252Z,16.09
2019-03-30T13:30:54.098Z,16.02
2019-03-30T13:33:58.969Z,15.93
2019-03-30T13:37:16.374Z,15.85
2019-03-30T13:40:22.918Z,15.73
2019-03-30T13:43:27.771Z,15.77
2019-03-30T13:46:32.604Z,15.75
2019-03-30T13:49:37.433Z,15.66
2019-03-30T13:52:42.267Z,15.38
2019-03-30T13:55:47.142Z,15.38
2019-03-30T13:58:51.995Z,15.37
2019-03-30T14:01:56.894Z,15.37
2019-03-30T14:05:01.747Z,15.26
2019-03-30T14:08:08.392Z,15.26
2019-03-30T14:11:13.226Z,15.18
2019-03-30T14:14:18.101Z,15.06
2019-03-30T14:17:22.954Z,14.95
2019-03-30T14:20:27.799Z,14.96
2019-03-30T14:23:32.646Z,15.10
2019-03-30T14:26:37.491Z,15.10
2019-03-30T14:29:42.605Z,15.09
2019-03-30T14:32:47.510Z,15.20
2019-03-30T14:35:52.282Z,15.20
2019-03-30T14:38:57.122Z,15.30
2019-03-30T14:42:01.920Z,15.40
2019-03-30T14:45:07.248Z,15.40
2019-03-30T14:48:12.060Z,15.09
2019-03-30T14:51:16.945Z,15.11
2019-03-30T14:54:21.810Z,15.05
2019-03-30T14:57:26.666Z,15.27
2019-03-30T15:00:31.622Z,15.30
2019-03-30T15:03:38.298Z,15.30
2019-03-30T15:06:43.153Z,15.16
2019-03-30T15:09:48.054Z,14.98
2019-03-30T15:12:52.896Z,14.93
2019-03-30T15:15:57.780Z,14.80
2019-03-30T15:19:02.662Z,14.53
2019-03-30T15:22:07.501Z,14.50
2019-03-30T15:25:12.754Z,14.52
2019-03-30T15:28:17.598Z,14.52
2019-03-30T15:31:26.426Z,14.61
2019-03-30T15:34:31.252Z,14.69
2019-03-30T15:37:36.123Z,14.62
2019-03-30T15:40:40.999Z,14.46
2019-03-30T15:43:45.840Z,14.46
2019-03-30T15:46:50.708Z,14.62
2019-03-30T15:49:55.600Z,14.75
2019-03-30T15:53:00.575Z,14.66
2019-03-30T15:56:05.723Z,14.63
2019-03-30T15:59:10.605Z,14.60
2019-03-30T16:02:15.413Z,14.57
2019-03-30T16:06:14.095Z,14.53
2019-03-30T16:09:37.018Z,14.31
2019-03-30T16:12:42.548Z,13.97
2019-03-30T16:15:47.899Z,13.97
2019-03-30T16:18:56.000Z,13.80
2019-03-30T16:22:01.241Z,13.39
2019-03-30T16:25:07.049Z,13.39
2019-03-30T16:28:12.396Z,13.04
2019-03-30T16:31:18.177Z,12.83
2019-03-30T16:34:23.735Z,12.73
2019-03-30T16:37:29.299Z,12.73
2019-03-30T16:41:32.312Z,12.65
2019-03-30T16:44:40.565Z,12.65
2019-03-30T16:47:46.505Z,12.56
2019-03-30T16:50:51.853Z,12.50
2019-03-30T16:53:57.289Z,12.37
2019-03-30T16:57:44.906Z,12.22
2019-03-30T17:01:14.142Z,12.14
2019-03-30T17:08:47.414Z,11.73
2019-03-30T17:11:54.875Z,11.55
2019-03-30T17:15:00.057Z,11.52
2019-03-30T17:18:05.248Z,11.51
2019-03-30T17:21:10.704Z,11.41
2019-03-30T17:24:23.326Z,11.24
2019-03-30T17:27:28.869Z,11.05
2019-03-30T17:30:34.320Z,10.89
2019-03-30T17:33:42.074Z,10.79
2019-03-30T17:37:14.797Z,10.67
2019-03-30T17:40:22.507Z,10.60
2019-03-30T17:43:28.161Z,10.57
2019-03-30T17:46:33.613Z,10.41
2019-03-30T17:49:42.235Z,10.25
2019-03-30T17:52:47.676Z,10.22
2019-03-30T17:55:53.239Z,10.11
2019-03-30T17:58:58.706Z,10.01
2019-03-30T18:02:04.336Z,9.89
2019-03-30T18:05:10.981Z,9.82
2019-03-30T18:08:16.556Z,9.77
2019-03-30T18:11:21.914Z,9.71
2019-03-30T18:14:36.160Z,9.60
2019-03-30T18:17:42.234Z,9.43
2019-03-30T18:20:48.013Z,9.31
2019-03-30T18:24:12.255Z,9.17
2019-03-30T18:27:25.807Z,9.01
2019-03-30T18:30:39.120Z,8.82
2019-03-30T18:33:47.440Z,8.69
2019-03-30T18:36:53.287Z,8.64
2019-03-30T18:39:59.363Z,8.56
2019-03-30T18:43:05.379Z,8.40
2019-03-30T18:46:12.410Z,8.22
2019-03-30T18:49:25.102Z,8.14
2019-03-30T18:59:15.381Z,7.76
2019-03-30T19:02:20.783Z,7.72
2019-03-30T19:12:49.425Z,7.54
2019-03-30T19:15:59.570Z,7.57
2019-03-30T19:22:51.114Z,7.47
2019-03-30T19:26:25.483Z,7.40
2019-03-30T19:30:14.163Z,7.39
2019-03-30T19:33:19.694Z,7.38
2019-03-30T19:36:35.354Z,7.38
2019-03-30T19:39:47.782Z,7.38
2019-03-30T19:42:58.415Z,7.36
2019-03-30T19:46:31.790Z,7.31
2019-03-30T19:53:13.280Z,7.25
2019-03-30T20:00:38.564Z,7.11
2019-03-30T20:03:45.472Z,7.13
2019-03-30T20:06:50.595Z,7.24
2019-03-30T20:13:31.753Z,7.32
2019-03-30T20:17:24.429Z,7.29
2019-03-30T20:24:12.018Z,7.23
2019-03-30T20:27:17.096Z,7.33
2019-03-30T20:30:24.515Z,7.37
2019-03-30T20:33:30.030Z,7.34
2019-03-30T20:36:35.453Z,7.31
2019-03-30T20:39:40.878Z,7.35
2019-03-30T20:43:21.892Z,7.46
2019-03-30T20:46:29.200Z,7.60
2019-03-30T20:49:36.949Z,7.54
2019-03-30T20:52:44.165Z,7.53
2019-03-30T20:55:49.640Z,7.57
2019-03-30T20:58:56.625Z,7.57
2019-03-30T21:06:39.271Z,7.62
2019-03-30T21:26:11.049Z,7.77
2019-03-30T21:41:45.566Z,7.74
2019-03-30T21:49:25.811Z,7.88
2019-03-30T21:52:37.301Z,7.93
2019-03-30T21:59:31.791Z,7.94
2019-03-30T22:06:15.091Z,8.11
2019-03-30T22:09:19.933Z,8.14
2019-03-30T22:12:24.813Z,8.15
2019-03-30T22:15:30.067Z,8.19
2019-03-30T22:18:34.886Z,8.17
2019-03-30T22:21:39.771Z,8.19
2019-03-30T22:24:44.617Z,8.19
2019-03-30T22:27:49.491Z,8.14
2019-03-30T22:30:56.414Z,8.12
2019-03-30T22:34:01.255Z,8.16
2019-03-30T22:37:06.098Z,8.20
2019-03-30T22:40:12.361Z,8.23
2019-03-30T22:43:17.243Z,8.19
2019-03-30T22:46:22.055Z,8.21
2019-03-30T22:49:26.901Z,8.25
2019-03-30T22:52:31.801Z,8.25
2019-03-30T22:55:36.634Z,8.17
2019-03-30T22:58:41.469Z,8.16
2019-03-30T23:01:48.394Z,8.17
2019-03-30T23:04:53.270Z,8.18
2019-03-30T23:07:58.097Z,8.21
2019-03-30T23:11:02.942Z,8.26
2019-03-30T23:14:07.787Z,8.22
2019-03-30T23:17:12.605Z,8.25
2019-03-30T23:20:17.452Z,8.19
2019-03-30T23:23:23.609Z,8.24
2019-03-30T23:26:28.412Z,8.25
2019-03-30T23:29:36.083Z,8.21
2019-03-30T23:32:40.939Z,8.14
2019-03-30T23:35:45.787Z,8.12
2019-03-30T23:38:50.587Z,8.06
2019-03-30T23:41:55.386Z,8.05
2019-03-30T23:45:04.134Z,8.13
2019-03-30T23:48:10.056Z,8.13
2019-03-30T23:51:14.887Z,8.07
2019-03-30T23:54:19.700Z,8.13
2019-03-30T23:57:24.749Z,8.12
